MET5914 - Philadelphia to Boston

Bombardier Dash-8-Q400
850AV
1 hr 15 mins
244 nm
Scheduled - Daily

Bid/PiRep Status

Bid was submitted on Dec 21 2016.

PiRep # 74430: Approved by Sean Doyle on December 23rd, 2016 4:06 UTC

Departure

Departing from
Philadelphia (PHL)
Departure gate
Scheduled Departure
GMT 1700
Local 1200
METAR KPHL 161154Z 31005KT 10SM FEW250 M02/M07 A3048 RMK AO2 SLP321 T10221072 11006 21033 53003
TAF KPHL 161121Z 1612/1718 VRB03KT P6SM BKN250 FM161500 23005KT P6SM BKN200 FM162200 21005KT P6SM OVC100 FM162300 VRB04KT P6SM OVC050 FM170800 15003KT P6SM OVC025 FM171000 14004KT 4SM BR OVC008 FM171500 12005KT 2SM -DZ BR OVC004
  • No charts available

Arrival

Arriving at
Boston (BOS)
Arrival gate
Scheduled Arrival
GMT 1815
Local 1315
METAR KBOS 161154Z 00000KT 10SM CLR M04/M09 A3044 RMK AO2 SLP305 T10441094 11028 21050 55001 $
TAF KBOS 161120Z 1612/1718 23007KT P6SM SKC FM171100 29004KT P6SM SCT250 FM171400 35005KT P6SM SCT200 FM171700 06005KT P6SM BKN150

Route Map

Planning Resources

KPHL-BRAND-RBV-JOANI-CREEL-SHLEP-HOFFI-HTO-SEY-BURDY-KBOS
DITCH V312 DRIFT V139 MANTA V308 ORW V16 WOONS
BRAND DCT RBV DCT JOANI DCT CREEL DCT SHLEP DCT HOFFI DCT HTO DCT SEY DCT BURDY DCT
PHLS DITCH V312 DRIFT V308 ORW WOONS
DITCH V312 DRIFT V139 PLUME V268 KOPPY V308 RICED V139 BEDYA V268 SHLEP V139 BEADS V308 ORW WOONS
Route:
OFP Layout:
Units:
Detailed Navlog:
ETOPS Planning:
Plan Stepclimbs:
Runway Analysis:
Include NOTAMS:
FIR NOTAMS:
Flight Maps:

Return Flights

MET5911
Bombardier Dash-8-Q400
1130 GMT
MET5913
Bombardier Dash-8-Q400
1515 GMT
MET5915
Bombardier Dash-8-Q400
2300 GMT
MET5917
Bombardier Dash-8-Q400
0300 GMT

Popularity

Hub Current Bids PiReps this month Total PiReps
KMCI 1 0 1
KLAX 0 0 3
KBOS 0 0 4